createdAt,value
2019-04-21T00:00:35.528Z,2.91
2019-04-21T00:03:50.123Z,2.79
2019-04-21T00:07:14.461Z,2.74
2019-04-21T00:10:28.437Z,2.74
2019-04-21T00:13:27.988Z,2.54
2019-04-21T00:16:29.623Z,2.54
2019-04-21T00:19:39.581Z,2.60
2019-04-21T00:22:58.808Z,2.59
2019-04-21T00:26:08.974Z,2.43
2019-04-21T00:29:31.418Z,2.43
2019-04-21T00:32:30.509Z,2.43
2019-04-21T00:35:27.461Z,2.43
2019-04-21T00:39:06.664Z,2.37
2019-04-21T00:41:59.614Z,2.33
2019-04-21T00:45:10.743Z,2.19
2019-04-21T00:48:23.621Z,2.19
2019-04-21T00:54:49.864Z,2.07
2019-04-21T00:57:58.575Z,2.07
2019-04-21T01:01:02.310Z,2.13
2019-04-21T01:04:13.946Z,2.06
2019-04-21T01:07:20.764Z,2.01
2019-04-21T01:10:24.456Z,1.98
2019-04-21T01:13:41.660Z,1.93
2019-04-21T01:16:56.173Z,1.88
2019-04-21T01:19:50.676Z,1.85
2019-04-21T01:22:43.241Z,1.79
2019-04-21T01:26:00.800Z,1.74
2019-04-21T01:29:15.778Z,1.68
2019-04-21T01:32:29.718Z,1.61
2019-04-21T01:35:40.361Z,1.61
2019-04-21T01:38:48.170Z,1.67
2019-04-21T01:41:57.411Z,1.60
2019-04-21T01:44:59.742Z,1.56
2019-04-21T01:48:06.555Z,1.55
2019-04-21T01:51:17.118Z,1.55
2019-04-21T01:54:35.278Z,1.44
2019-04-21T01:57:42.619Z,1.46
2019-04-21T02:01:01.660Z,1.48
2019-04-21T02:04:24.025Z,1.44
2019-04-21T02:07:29.727Z,1.38
2019-04-21T02:10:42.317Z,1.37
2019-04-21T02:13:48.554Z,1.35
2019-04-21T02:16:54.193Z,1.30
2019-04-21T02:19:57.613Z,1.27
2019-04-21T02:26:23.136Z,1.17
2019-04-21T02:29:32.955Z,1.16
2019-04-21T02:32:47.955Z,1.14
2019-04-21T02:36:04.084Z,1.10
2019-04-21T02:39:16.446Z,1.07
2019-04-21T02:42:11.519Z,1.02
2019-04-21T02:45:22.951Z,0.98
2019-04-21T02:51:54.221Z,0.89
2019-04-21T03:01:12.496Z,0.78
2019-04-21T03:04:32.194Z,0.73
2019-04-21T03:07:32.233Z,0.68
2019-04-21T03:14:05.967Z,0.62
2019-04-21T03:17:05.384Z,0.58
2019-04-21T03:20:18.966Z,0.62
2019-04-21T03:26:41.613Z,0.49
2019-04-21T03:29:48.295Z,0.49
2019-04-21T03:33:32.485Z,0.53
2019-04-21T03:39:01.147Z,0.48
2019-04-21T03:42:33.770Z,0.42
2019-04-21T04:02:03.908Z,0.38
2019-04-21T04:05:13.085Z,0.37
2019-04-21T04:08:44.786Z,0.33
2019-04-21T04:11:37.765Z,0.20
2019-04-21T04:14:47.353Z,0.20
2019-04-21T04:17:46.815Z,0.30
2019-04-21T04:21:06.063Z,0.20
2019-04-21T04:27:35.317Z,0.32
2019-04-21T04:36:57.034Z,0.43
2019-04-21T04:40:10.000Z,0.47
2019-04-21T04:43:44.610Z,0.51
2019-04-21T04:46:26.749Z,0.65
2019-04-21T04:49:43.431Z,0.65
2019-04-21T04:52:36.958Z,0.69
2019-04-21T04:55:48.042Z,0.70
2019-04-21T05:02:28.125Z,0.94
2019-04-21T05:05:19.330Z,1.03
2019-04-21T05:08:39.454Z,1.15
2019-04-21T05:21:04.337Z,1.51
2019-04-21T05:23:55.776Z,1.64
2019-04-21T05:27:08.659Z,1.75
2019-04-21T05:30:29.576Z,1.97
2019-04-21T05:33:36.464Z,1.97
2019-04-21T05:36:59.533Z,2.10
2019-04-21T05:40:00.593Z,2.26
2019-04-21T05:43:20.229Z,2.44
2019-04-21T05:46:25.234Z,2.44
2019-04-21T05:49:34.091Z,2.74
2019-04-21T05:52:44.961Z,3.01
2019-04-21T05:56:04.892Z,3.01
2019-04-21T05:59:13.721Z,3.32
2019-04-21T06:02:25.667Z,3.98
2019-04-21T06:05:40.743Z,3.98
2019-04-21T06:08:52.542Z,4.34
2019-04-21T06:11:50.974Z,5.14
2019-04-21T06:18:13.027Z,5.57
2019-04-21T06:21:13.137Z,6.00
2019-04-21T06:24:20.507Z,6.70
2019-04-21T06:27:32.497Z,7.43
2019-04-21T06:30:53.101Z,7.94
2019-04-21T06:33:50.841Z,9.07
2019-04-21T06:43:39.963Z,10.15
2019-04-21T06:46:39.379Z,10.56
2019-04-21T06:49:41.183Z,11.67
2019-04-21T06:55:52.068Z,13.71
2019-04-21T06:59:01.458Z,14.17
2019-04-21T07:05:21.696Z,14.66
2019-04-21T07:08:34.486Z,14.94
2019-04-21T07:11:37.891Z,15.17
2019-04-21T07:14:48.221Z,15.54
2019-04-21T07:17:59.519Z,16.56
2019-04-21T07:21:09.583Z,17.06
2019-04-21T07:24:21.736Z,16.68
2019-04-21T07:27:30.289Z,17.61
2019-04-21T07:30:39.217Z,16.79
2019-04-21T07:34:01.626Z,17.71
2019-04-21T07:36:55.846Z,18.07
2019-04-21T07:39:54.978Z,18.08
2019-04-21T07:43:06.630Z,18.86
2019-04-21T07:46:11.779Z,18.86
2019-04-21T07:49:50.146Z,19.80
2019-04-21T07:55:51.266Z,18.96
2019-04-21T07:59:21.247Z,19.16
2019-04-21T08:02:23.370Z,21.09
2019-04-21T08:05:31.341Z,22.10
2019-04-21T08:08:43.543Z,20.88
2019-04-21T08:11:50.574Z,20.86
2019-04-21T08:15:00.790Z,22.42
2019-04-21T08:18:20.571Z,20.11
2019-04-21T08:21:11.246Z,20.64
2019-04-21T08:24:28.559Z,19.94
2019-04-21T08:27:42.459Z,19.75
2019-04-21T08:30:44.438Z,18.85
2019-04-21T08:34:01.730Z,19.03
2019-04-21T08:37:00.205Z,19.05
2019-04-21T08:43:30.688Z,19.50
2019-04-21T08:46:32.938Z,19.79
2019-04-21T08:49:36.374Z,18.75
2019-04-21T08:52:48.859Z,18.75
2019-04-21T08:56:15.044Z,20.16
2019-04-21T08:59:26.822Z,21.19
2019-04-21T09:02:43.106Z,20.27
2019-04-21T09:05:42.641Z,20.12
2019-04-21T09:08:51.958Z,22.68
2019-04-21T09:12:07.255Z,22.78
2019-04-21T09:15:08.051Z,22.83
2019-04-21T09:18:17.516Z,22.39
2019-04-21T09:21:32.722Z,22.01
2019-04-21T09:24:33.339Z,21.28
2019-04-21T09:27:42.195Z,20.87
2019-04-21T09:30:43.702Z,23.06
2019-04-21T09:33:48.753Z,21.29
2019-04-21T09:37:11.908Z,21.29
2019-04-21T09:40:03.052Z,23.14
2019-04-21T09:43:13.440Z,20.69
2019-04-21T09:46:20.753Z,20.69
2019-04-21T09:49:31.713Z,21.57
2019-04-21T09:52:44.855Z,20.26
2019-04-21T09:55:53.667Z,21.04
2019-04-21T09:59:07.237Z,21.04
2019-04-21T10:02:10.011Z,21.64
2019-04-21T10:05:12.359Z,20.79
2019-04-21T10:08:19.615Z,20.79
2019-04-21T10:17:43.943Z,21.41
2019-04-21T10:20:51.325Z,23.91
2019-04-21T10:23:59.776Z,22.58
2019-04-21T10:27:08.603Z,21.95
2019-04-21T10:30:16.362Z,23.13
2019-04-21T10:33:24.195Z,23.21
2019-04-21T10:36:31.272Z,23.21
2019-04-21T10:39:38.257Z,24.37
2019-04-21T10:42:46.011Z,21.97
2019-04-21T10:45:53.323Z,24.27
2019-04-21T10:48:59.412Z,24.74
2019-04-21T10:52:08.905Z,25.86
2019-04-21T10:55:32.037Z,26.34
2019-04-21T10:58:26.711Z,23.72
2019-04-21T11:01:35.258Z,25.00
2019-04-21T11:04:44.028Z,26.51
2019-04-21T11:08:05.132Z,26.76
2019-04-21T11:11:01.636Z,26.41
2019-04-21T11:14:10.465Z,24.44
2019-04-21T11:17:18.225Z,23.03
2019-04-21T11:20:26.907Z,22.99
2019-04-21T11:23:35.222Z,22.99
2019-04-21T11:26:42.624Z,23.87
2019-04-21T11:29:49.580Z,23.52
2019-04-21T11:32:57.141Z,22.12
2019-04-21T11:36:07.021Z,22.12
2019-04-21T11:39:27.279Z,23.38
2019-04-21T11:42:26.283Z,23.41
2019-04-21T11:45:39.972Z,23.02
2019-04-21T11:48:48.364Z,24.77
2019-04-21T11:51:56.507Z,24.04
2019-04-21T11:55:04.738Z,24.64
2019-04-21T11:58:11.944Z,24.22
2019-04-21T12:01:19.552Z,22.04
2019-04-21T12:04:27.653Z,22.11
2019-04-21T12:07:35.363Z,22.11
2019-04-21T12:10:43.064Z,23.30
2019-04-21T12:13:50.057Z,23.30
2019-04-21T12:16:57.265Z,23.39
2019-04-21T12:20:06.729Z,23.83
2019-04-21T12:23:16.484Z,23.19
2019-04-21T12:26:24.201Z,24.68
2019-04-21T12:29:33.594Z,25.17
2019-04-21T12:32:46.310Z,25.17
2019-04-21T12:35:53.664Z,23.90
2019-04-21T12:39:03.314Z,24.43
2019-04-21T12:42:10.736Z,24.43
2019-04-21T12:45:17.611Z,23.86
2019-04-21T12:48:24.529Z,24.56
2019-04-21T12:51:31.382Z,23.96
2019-04-21T12:54:37.744Z,23.96
2019-04-21T12:57:47.586Z,24.03
2019-04-21T13:00:55.027Z,24.32
2019-04-21T13:04:01.952Z,24.90
2019-04-21T13:07:09.864Z,25.00
2019-04-21T13:10:18.188Z,25.64
2019-04-21T13:13:26.175Z,23.25
2019-04-21T13:16:33.664Z,23.26
2019-04-21T13:19:41.232Z,23.68
2019-04-21T13:22:50.170Z,23.07
2019-04-21T13:25:57.339Z,23.13
2019-04-21T13:29:06.051Z,23.38
2019-04-21T13:32:14.349Z,22.43
2019-04-21T13:35:23.245Z,22.65
2019-04-21T13:38:38.737Z,22.92
2019-04-21T13:41:50.588Z,23.34
2019-04-21T13:44:50.848Z,23.17
2019-04-21T13:47:58.738Z,23.71
2019-04-21T13:51:07.123Z,24.31
2019-04-21T13:54:15.584Z,23.75
2019-04-21T13:57:22.932Z,24.09
2019-04-21T14:00:31.663Z,22.56
2019-04-21T14:03:39.648Z,22.28
2019-04-21T14:06:47.986Z,23.04
2019-04-21T14:10:00.726Z,23.61
2019-04-21T14:13:04.687Z,23.61
2019-04-21T14:16:12.035Z,23.61
2019-04-21T14:19:19.375Z,23.45
2019-04-21T14:22:26.387Z,23.54
2019-04-21T14:25:33.593Z,23.42
2019-04-21T14:28:41.037Z,21.78
2019-04-21T14:31:48.480Z,21.78
2019-04-21T14:34:56.598Z,22.14
2019-04-21T14:38:04.819Z,21.72
2019-04-21T14:41:12.474Z,22.16
2019-04-21T14:44:20.721Z,22.77
2019-04-21T14:47:42.132Z,22.83
2019-04-21T14:50:54.595Z,23.27
2019-04-21T14:54:10.062Z,23.13
2019-04-21T14:57:17.256Z,23.30
2019-04-21T15:00:27.402Z,23.99
2019-04-21T15:03:34.447Z,23.59
2019-04-21T15:06:41.601Z,23.77
2019-04-21T15:10:01.441Z,23.44
2019-04-21T15:12:57.414Z,23.44
2019-04-21T15:16:04.675Z,23.55
2019-04-21T15:19:12.774Z,23.58
2019-04-21T15:22:21.057Z,24.50
2019-04-21T15:25:30.204Z,23.58
2019-04-21T15:28:40.505Z,22.37
2019-04-21T15:31:48.386Z,22.37
2019-04-21T15:34:58.151Z,22.40
2019-04-21T15:38:04.731Z,22.06
2019-04-21T15:41:12.668Z,22.06
2019-04-21T15:44:20.853Z,21.85
2019-04-21T15:47:28.299Z,22.88
2019-04-21T15:50:35.649Z,21.94
2019-04-21T15:53:44.260Z,21.58
2019-04-21T15:56:53.156Z,21.58
2019-04-21T16:00:02.801Z,21.84
2019-04-21T16:03:10.924Z,21.97
2019-04-21T16:06:19.417Z,21.59
2019-04-21T16:09:28.914Z,21.10
2019-04-21T16:12:36.031Z,21.21
2019-04-21T16:15:46.312Z,21.00
2019-04-21T16:18:54.650Z,20.51
2019-04-21T16:22:03.392Z,20.51
2019-04-21T16:25:10.781Z,20.27
2019-04-21T16:28:17.585Z,20.19
2019-04-21T16:31:24.857Z,20.34
2019-04-21T16:34:41.352Z,19.94
2019-04-21T16:37:41.609Z,19.85
2019-04-21T16:40:57.263Z,19.74
2019-04-21T16:43:58.912Z,19.85
2019-04-21T16:47:07.644Z,19.49
2019-04-21T16:50:15.986Z,19.53
2019-04-21T16:53:37.716Z,19.64
2019-04-21T16:56:50.099Z,19.39
2019-04-21T17:00:00.205Z,19.22
2019-04-21T17:03:08.593Z,19.09
2019-04-21T17:06:17.410Z,18.82
2019-04-21T17:09:24.567Z,18.82
2019-04-21T17:12:33.018Z,18.56
2019-04-21T17:15:53.087Z,18.56
2019-04-21T17:18:59.571Z,18.45
2019-04-21T17:21:57.743Z,18.37
2019-04-21T17:25:06.738Z,18.13
2019-04-21T17:28:15.471Z,18.05
2019-04-21T17:31:24.660Z,17.93
2019-04-21T17:34:33.445Z,17.90
2019-04-21T17:37:42.329Z,17.77
2019-04-21T17:40:49.609Z,17.54
2019-04-21T17:43:58.313Z,17.35
2019-04-21T17:47:17.896Z,17.35
2019-04-21T17:50:19.890Z,17.27
2019-04-21T17:53:38.260Z,17.01
2019-04-21T17:57:18.364Z,16.90
2019-04-21T18:03:25.286Z,16.40
2019-04-21T18:06:25.809Z,15.82
2019-04-21T18:09:36.718Z,15.82
2019-04-21T18:12:36.238Z,15.74
2019-04-21T18:15:50.613Z,15.47
2019-04-21T18:18:44.234Z,15.24
2019-04-21T18:22:07.658Z,14.91
2019-04-21T18:25:28.155Z,14.68
2019-04-21T18:28:28.353Z,14.41
2019-04-21T18:31:45.039Z,14.06
2019-04-21T18:34:56.273Z,13.49
2019-04-21T18:38:14.257Z,13.49
2019-04-21T18:41:29.646Z,13.16
2019-04-21T18:45:34.526Z,13.08
2019-04-21T18:48:19.083Z,12.92
2019-04-21T18:51:20.352Z,12.70
2019-04-21T18:54:47.234Z,12.52
2019-04-21T18:57:42.857Z,12.24
2019-04-21T19:00:48.618Z,12.02
2019-04-21T19:03:58.297Z,11.47
2019-04-21T19:07:18.080Z,11.47
2019-04-21T19:10:35.375Z,11.18
2019-04-21T19:14:23.128Z,10.80
2019-04-21T19:20:11.768Z,10.86
2019-04-21T19:23:27.506Z,10.60
2019-04-21T19:26:39.806Z,10.45
2019-04-21T19:29:45.569Z,10.26
2019-04-21T19:32:49.684Z,10.11
2019-04-21T19:35:41.504Z,9.85
2019-04-21T19:38:59.543Z,9.60
2019-04-21T19:42:12.114Z,9.60
2019-04-21T19:45:22.407Z,9.46
2019-04-21T19:48:47.522Z,9.36
2019-04-21T19:51:43.266Z,9.20
2019-04-21T19:54:44.463Z,9.03
2019-04-21T19:57:49.391Z,8.73
2019-04-21T20:00:57.426Z,8.73
2019-04-21T20:04:06.306Z,8.54
2019-04-21T20:07:25.688Z,8.40
2019-04-21T20:10:44.511Z,8.32
2019-04-21T20:14:13.826Z,8.32
2019-04-21T20:17:00.638Z,8.20
2019-04-21T20:19:58.146Z,8.06
2019-04-21T20:23:13.207Z,7.98
2019-04-21T20:26:17.432Z,7.90
2019-04-21T20:29:44.600Z,7.83
2019-04-21T20:32:56.465Z,7.70
2019-04-21T20:36:12.344Z,7.64
2019-04-21T20:39:07.269Z,7.56
2019-04-21T20:42:24.279Z,7.48
2019-04-21T20:48:45.242Z,7.30
2019-04-21T20:52:07.991Z,7.16
2019-04-21T20:55:09.406Z,7.09
2019-04-21T20:58:09.158Z,7.00
2019-04-21T21:04:30.281Z,6.82
2019-04-21T21:07:50.037Z,6.74
2019-04-21T21:10:50.019Z,6.70
2019-04-21T21:14:06.996Z,6.59
2019-04-21T21:17:28.386Z,6.51
2019-04-21T21:20:33.534Z,6.41
2019-04-21T21:26:49.594Z,6.29
2019-04-21T21:29:52.372Z,6.23
2019-04-21T21:33:00.810Z,6.14
2019-04-21T21:36:13.976Z,6.07
2019-04-21T21:39:21.595Z,5.99
2019-04-21T21:42:13.930Z,5.91
2019-04-21T21:45:26.980Z,5.79
2019-04-21T21:48:46.273Z,5.79
2019-04-21T21:51:55.946Z,5.69
2019-04-21T21:54:49.796Z,5.61
2019-04-21T21:58:01.788Z,5.61
2019-04-21T22:01:11.765Z,5.56
2019-04-21T22:04:26.138Z,5.49
2019-04-21T22:07:33.190Z,5.49
2019-04-21T22:10:39.159Z,5.41
2019-04-21T22:13:53.319Z,5.35
2019-04-21T22:17:12.266Z,5.28
2019-04-21T22:20:22.534Z,5.07
2019-04-21T22:23:24.192Z,5.10
2019-04-21T22:26:21.486Z,5.10
2019-04-21T22:29:38.181Z,5.07
2019-04-21T22:32:38.648Z,4.99
2019-04-21T22:35:53.330Z,4.87
2019-04-21T22:39:16.188Z,4.83
2019-04-21T22:42:12.139Z,4.76
2019-04-21T22:45:13.559Z,4.70
2019-04-21T22:48:24.584Z,4.64
2019-04-21T22:51:37.298Z,4.59
2019-04-21T22:54:41.301Z,4.51
2019-04-21T22:57:49.788Z,4.50
2019-04-21T23:00:58.573Z,4.42
2019-04-21T23:04:04.706Z,4.37
2019-04-21T23:07:15.116Z,4.24
2019-04-21T23:10:21.141Z,4.24
2019-04-21T23:13:29.325Z,4.20
2019-04-21T23:16:40.266Z,4.17
2019-04-21T23:20:08.898Z,4.13
2019-04-21T23:23:16.309Z,4.08
2019-04-21T23:26:21.977Z,4.02
2019-04-21T23:29:38.969Z,3.97
2019-04-21T23:32:33.900Z,3.89
2019-04-21T23:35:35.214Z,3.77
2019-04-21T23:38:44.181Z,3.77
2019-04-21T23:41:51.191Z,3.72
2019-04-21T23:44:58.147Z,3.68
2019-04-21T23:48:19.681Z,3.61
2019-04-21T23:51:25.881Z,3.56
2019-04-21T23:54:23.012Z,3.41
2019-04-21T23:57:36.908Z,3.41
